createdAt,value
2019-05-14T00:00:32.453Z,76.12
2019-05-14T00:03:03.039Z,76.39
2019-05-14T00:05:33.526Z,76.40
2019-05-14T00:08:04.295Z,76.50
2019-05-14T00:10:34.881Z,76.80
2019-05-14T00:13:05.373Z,77.12
2019-05-14T00:15:35.841Z,77.37
2019-05-14T00:18:06.325Z,77.37
2019-05-14T00:20:36.956Z,77.43
2019-05-14T00:23:07.613Z,77.62
2019-05-14T00:25:38.118Z,77.69
2019-05-14T00:28:08.677Z,78.28
2019-05-14T00:30:39.151Z,78.35
2019-05-14T00:33:11.550Z,78.58
2019-05-14T00:35:41.839Z,78.82
2019-05-14T00:38:12.348Z,78.64
2019-05-14T00:40:42.785Z,78.86
2019-05-14T00:43:13.236Z,79.12
2019-05-14T00:45:43.679Z,79.20
2019-05-14T00:48:14.190Z,79.30
2019-05-14T00:50:44.735Z,79.68
2019-05-14T00:53:15.184Z,79.69
2019-05-14T00:55:45.694Z,79.48
2019-05-14T00:58:16.222Z,79.51
2019-05-14T01:00:46.787Z,79.47
2019-05-14T01:03:17.265Z,79.58
2019-05-14T01:05:47.789Z,79.51
2019-05-14T01:08:18.360Z,79.25
2019-05-14T01:10:50.990Z,79.29
2019-05-14T01:13:21.926Z,79.39
2019-05-14T01:15:52.791Z,79.09
2019-05-14T01:18:23.361Z,79.18
2019-05-14T01:20:53.850Z,79.18
2019-05-14T01:23:24.313Z,79.13
2019-05-14T01:25:54.745Z,79.25
2019-05-14T01:28:25.214Z,79.21
2019-05-14T01:30:55.739Z,79.60
2019-05-14T01:33:26.523Z,79.51
2019-05-14T01:35:57.014Z,79.63
2019-05-14T01:38:27.533Z,79.87
2019-05-14T01:40:57.967Z,79.90
2019-05-14T01:43:28.549Z,79.86
2019-05-14T01:46:01.612Z,79.91
2019-05-14T01:48:31.450Z,80.09
2019-05-14T01:51:01.965Z,80.12
2019-05-14T01:53:32.257Z,80.15
2019-05-14T01:56:02.735Z,80.04
2019-05-14T01:58:33.304Z,79.82
2019-05-14T02:01:03.811Z,80.09
2019-05-14T02:03:34.310Z,80.17
2019-05-14T02:06:04.775Z,80.61
2019-05-14T02:08:35.258Z,80.49
2019-05-14T02:11:05.714Z,80.30
2019-05-14T02:13:36.181Z,80.12
2019-05-14T02:16:06.702Z,80.46
2019-05-14T02:18:37.175Z,80.73
2019-05-14T02:21:07.687Z,80.90
2019-05-14T02:23:38.448Z,81.18
2019-05-14T02:26:11.291Z,81.25
2019-05-14T02:28:42.012Z,81.20
2019-05-14T02:31:12.764Z,81.41
2019-05-14T02:33:43.234Z,81.52
2019-05-14T02:36:13.699Z,81.52
2019-05-14T02:38:44.336Z,81.46
2019-05-14T02:41:14.816Z,81.57
2019-05-14T02:43:45.270Z,81.53
2019-05-14T02:46:17.444Z,81.68
2019-05-14T02:48:49.170Z,81.63
2019-05-14T02:51:20.263Z,81.59
2019-05-14T02:53:51.404Z,81.75
2019-05-14T02:56:21.925Z,81.62
2019-05-14T02:58:52.361Z,81.60
2019-05-14T03:01:22.811Z,81.51
2019-05-14T03:03:53.338Z,81.36
2019-05-14T03:06:24.038Z,81.47
2019-05-14T03:08:54.498Z,81.53
2019-05-14T03:11:25.019Z,81.81
2019-05-14T03:13:55.598Z,81.89
2019-05-14T03:16:34.630Z,81.89
2019-05-14T03:18:59.549Z,81.92
2019-05-14T03:21:30.699Z,82.36
2019-05-14T03:24:01.153Z,82.48
2019-05-14T03:26:31.737Z,82.55
2019-05-14T03:29:02.296Z,82.66
2019-05-14T03:31:33.983Z,82.66
2019-05-14T03:34:04.842Z,82.73
2019-05-14T03:36:35.819Z,83.02
2019-05-14T03:39:10.515Z,82.94
2019-05-14T03:41:40.192Z,83.06
2019-05-14T03:44:10.748Z,83.05
2019-05-14T03:46:51.158Z,83.24
2019-05-14T03:49:13.481Z,83.20
2019-05-14T03:51:44.003Z,83.44
2019-05-14T03:54:14.656Z,83.40
2019-05-14T03:56:45.187Z,83.15
2019-05-14T03:59:16.110Z,83.44
2019-05-14T04:01:50.696Z,83.38
2019-05-14T04:04:19.743Z,83.49
2019-05-14T04:06:52.224Z,83.82
2019-05-14T04:09:24.405Z,83.86
2019-05-14T04:11:59.479Z,83.54
2019-05-14T04:14:32.730Z,83.40
2019-05-14T04:17:10.996Z,83.48
2019-05-14T04:19:39.665Z,83.42
2019-05-14T04:22:14.513Z,83.31
2019-05-14T04:24:49.603Z,83.18
2019-05-14T04:27:22.352Z,82.94
2019-05-14T04:29:54.974Z,83.39
2019-05-14T04:32:29.226Z,83.33
2019-05-14T04:35:00.009Z,83.12
2019-05-14T04:37:30.661Z,83.20
2019-05-14T04:40:01.254Z,83.47
2019-05-14T04:42:31.850Z,83.50
2019-05-14T04:45:05.586Z,83.24
2019-05-14T04:47:37.429Z,83.33
2019-05-14T04:50:10.573Z,83.21
2019-05-14T04:52:40.610Z,82.92
2019-05-14T04:55:11.372Z,82.56
2019-05-14T04:57:41.787Z,82.25
2019-05-14T05:00:12.853Z,81.86
2019-05-14T05:02:43.486Z,81.47
2019-05-14T05:05:14.103Z,81.35
2019-05-14T05:07:44.607Z,80.73
2019-05-14T05:10:15.112Z,80.58
2019-05-14T05:12:45.607Z,80.74
2019-05-14T05:15:16.123Z,80.65
2019-05-14T05:17:51.809Z,79.93
2019-05-14T05:20:19.471Z,80.05
2019-05-14T05:22:49.974Z,79.73
2019-05-14T05:25:20.540Z,80.06
2019-05-14T05:27:51.221Z,80.41
2019-05-14T05:30:22.117Z,80.58
2019-05-14T05:32:52.637Z,79.46
2019-05-14T05:35:23.206Z,78.20
2019-05-14T05:37:53.948Z,77.14
2019-05-14T05:40:24.458Z,76.19
2019-05-14T05:42:54.915Z,75.02
2019-05-14T05:45:25.467Z,74.38
2019-05-14T05:47:59.038Z,74.86
2019-05-14T05:50:28.744Z,74.77
2019-05-14T05:52:59.470Z,75.13
2019-05-14T05:55:30.008Z,74.30
2019-05-14T05:58:00.478Z,72.57
2019-05-14T06:00:39.494Z,71.87
2019-05-14T06:03:10.679Z,72.08
2019-05-14T06:05:41.476Z,72.44
2019-05-14T06:08:12.107Z,74.01
2019-05-14T06:10:42.596Z,73.12
2019-05-14T06:13:14.045Z,72.91
2019-05-14T06:15:48.726Z,72.24
2019-05-14T06:18:19.452Z,72.64
2019-05-14T06:20:49.524Z,73.02
2019-05-14T06:23:19.997Z,74.36
2019-05-14T06:25:50.455Z,74.71
2019-05-14T06:28:21.202Z,75.13
2019-05-14T06:30:51.645Z,75.23
2019-05-14T06:33:22.181Z,73.88
2019-05-14T06:35:52.679Z,71.45
2019-05-14T06:38:23.217Z,70.43
2019-05-14T06:40:53.782Z,69.10
2019-05-14T06:43:24.268Z,68.69
2019-05-14T06:45:54.810Z,67.35
2019-05-14T06:48:30.831Z,67.62
2019-05-14T06:50:58.448Z,66.62
2019-05-14T06:53:29.375Z,65.51
2019-05-14T06:55:59.940Z,65.37
2019-05-14T06:58:30.387Z,65.32
2019-05-14T07:01:00.888Z,65.07
2019-05-14T07:03:31.477Z,64.03
2019-05-14T07:06:01.966Z,63.52
2019-05-14T07:08:32.413Z,62.96
2019-05-14T07:11:02.835Z,63.49
2019-05-14T07:13:33.353Z,61.92
2019-05-14T07:16:03.815Z,61.71
2019-05-14T07:18:48.563Z,60.79
2019-05-14T07:21:08.220Z,61.51
2019-05-14T07:23:38.833Z,60.69
2019-05-14T07:26:09.310Z,60.75
2019-05-14T07:28:42.493Z,60.04
2019-05-14T07:31:12.424Z,59.67
2019-05-14T07:33:42.927Z,61.85
2019-05-14T07:36:13.828Z,60.81
2019-05-14T07:38:44.345Z,59.96
2019-05-14T07:41:14.901Z,59.48
2019-05-14T07:43:45.418Z,58.66
2019-05-14T07:46:15.826Z,57.22
2019-05-14T07:49:03.274Z,57.37
2019-05-14T07:51:20.795Z,57.54
2019-05-14T07:53:51.288Z,57.41
2019-05-14T07:56:21.737Z,57.58
2019-05-14T07:58:52.505Z,58.83
2019-05-14T08:01:22.919Z,57.79
2019-05-14T08:03:53.401Z,56.04
2019-05-14T08:06:23.994Z,55.86
2019-05-14T08:08:54.445Z,56.01
2019-05-14T08:11:24.889Z,56.07
2019-05-14T08:13:55.430Z,56.95
2019-05-14T08:16:25.949Z,55.33
2019-05-14T08:18:56.432Z,54.14
2019-05-14T08:21:28.428Z,54.47
2019-05-14T08:23:59.461Z,54.83
2019-05-14T08:26:30.031Z,54.79
2019-05-14T08:29:00.564Z,53.99
2019-05-14T08:31:32.443Z,54.43
2019-05-14T08:34:04.652Z,54.31
2019-05-14T08:36:35.163Z,54.08
2019-05-14T08:39:08.834Z,53.84
2019-05-14T08:41:39.597Z,53.44
2019-05-14T08:44:10.097Z,53.44
2019-05-14T08:46:40.827Z,53.24
2019-05-14T08:49:11.327Z,53.36
2019-05-14T08:51:41.815Z,52.08
2019-05-14T08:54:18.700Z,52.41
2019-05-14T08:56:49.032Z,52.98
2019-05-14T08:59:19.776Z,51.51
2019-05-14T09:02:02.326Z,51.06
2019-05-14T09:04:23.667Z,51.90
2019-05-14T09:06:54.207Z,51.03
2019-05-14T09:09:24.768Z,50.39
2019-05-14T09:11:55.208Z,49.99
2019-05-14T09:14:28.099Z,50.53
2019-05-14T09:16:59.932Z,49.97
2019-05-14T09:19:30.269Z,49.57
2019-05-14T09:22:00.738Z,49.13
2019-05-14T09:24:31.217Z,50.05
2019-05-14T09:27:01.689Z,49.50
2019-05-14T09:29:32.261Z,49.23
2019-05-14T09:32:02.781Z,49.70
2019-05-14T09:34:33.240Z,49.87
2019-05-14T09:37:03.705Z,49.43
2019-05-14T09:39:34.189Z,49.63
2019-05-14T09:42:05.033Z,49.26
2019-05-14T09:44:35.653Z,48.86
2019-05-14T09:47:08.572Z,50.16
2019-05-14T09:49:39.033Z,50.96
2019-05-14T09:52:09.596Z,50.56
2019-05-14T09:54:43.840Z,48.12
2019-05-14T09:57:12.251Z,45.72
2019-05-14T09:59:42.758Z,44.59
2019-05-14T10:02:13.402Z,44.26
2019-05-14T10:04:44.816Z,43.61
2019-05-14T10:07:16.041Z,44.51
2019-05-14T10:09:49.063Z,45.12
2019-05-14T10:12:19.009Z,45.65
2019-05-14T10:14:49.497Z,46.43
2019-05-14T10:17:19.964Z,45.52
2019-05-14T10:19:50.482Z,42.32
2019-05-14T10:22:20.923Z,41.33
2019-05-14T10:24:51.516Z,42.22
2019-05-14T10:27:22.020Z,43.10
2019-05-14T10:29:52.752Z,42.04
2019-05-14T10:32:23.213Z,41.66
2019-05-14T10:34:53.731Z,41.59
2019-05-14T10:37:24.271Z,40.88
2019-05-14T10:39:55.221Z,40.41
2019-05-14T10:42:25.740Z,41.09
2019-05-14T10:44:58.663Z,41.34
2019-05-14T10:47:29.198Z,40.60
2019-05-14T10:49:59.752Z,40.15
2019-05-14T10:52:30.435Z,40.21
2019-05-14T10:55:01.006Z,41.64
2019-05-14T10:57:31.462Z,40.71
2019-05-14T11:00:01.978Z,40.81
2019-05-14T11:02:32.475Z,40.98
2019-05-14T11:05:02.968Z,39.76
2019-05-14T11:07:33.453Z,39.41
2019-05-14T11:10:04.120Z,39.88
2019-05-14T11:12:34.619Z,39.90
2019-05-14T11:15:05.715Z,41.12
2019-05-14T11:17:36.320Z,41.24
2019-05-14T11:20:08.070Z,41.73
2019-05-14T11:22:39.008Z,40.92
2019-05-14T11:25:09.971Z,40.83
2019-05-14T11:27:40.503Z,41.54
2019-05-14T11:30:12.510Z,41.30
2019-05-14T11:32:43.060Z,41.48
2019-05-14T11:35:13.619Z,41.49
2019-05-14T11:37:44.203Z,41.46
2019-05-14T11:40:15.271Z,41.24
2019-05-14T11:42:45.785Z,41.66
2019-05-14T11:45:18.154Z,42.07
2019-05-14T11:47:48.977Z,41.31
2019-05-14T11:50:19.740Z,41.18
2019-05-14T11:52:50.217Z,40.46
2019-05-14T11:55:20.887Z,40.83
2019-05-14T11:57:51.435Z,40.38
2019-05-14T12:00:25.814Z,39.95
2019-05-14T12:02:54.544Z,40.39
2019-05-14T12:05:24.983Z,40.22
2019-05-14T12:07:55.492Z,40.28
2019-05-14T12:10:26.164Z,41.08
2019-05-14T12:12:58.437Z,39.68
2019-05-14T12:15:28.762Z,39.03
2019-05-14T12:17:59.750Z,40.02
2019-05-14T12:20:30.376Z,39.51
2019-05-14T12:23:01.031Z,36.32
2019-05-14T12:25:31.457Z,35.96
2019-05-14T12:28:01.923Z,35.57
2019-05-14T12:30:32.383Z,34.96
2019-05-14T12:33:03.095Z,33.20
2019-05-14T12:35:33.513Z,33.03
2019-05-14T12:38:04.029Z,33.21
2019-05-14T12:40:34.655Z,32.68
2019-05-14T12:43:05.186Z,33.94
2019-05-14T12:45:35.744Z,33.89
2019-05-14T12:48:06.193Z,34.64
2019-05-14T12:50:39.160Z,35.20
2019-05-14T12:53:09.958Z,35.31
2019-05-14T12:55:40.524Z,34.66
2019-05-14T12:58:10.962Z,34.47
2019-05-14T13:00:41.601Z,34.16
2019-05-14T13:03:12.017Z,33.56
2019-05-14T13:05:42.601Z,33.32
2019-05-14T13:08:13.043Z,34.07
2019-05-14T13:10:43.460Z,34.29
2019-05-14T13:13:13.911Z,33.95
2019-05-14T13:15:44.537Z,35.29
2019-05-14T13:18:14.971Z,33.38
2019-05-14T13:20:45.389Z,33.62
2019-05-14T13:23:18.365Z,33.31
2019-05-14T13:25:49.022Z,34.81
2019-05-14T13:28:19.597Z,35.56
2019-05-14T13:30:51.057Z,34.97
2019-05-14T13:33:21.491Z,34.20
2019-05-14T13:35:51.958Z,34.91
2019-05-14T13:38:22.422Z,33.39
2019-05-14T13:40:52.880Z,33.87
2019-05-14T13:43:23.590Z,33.75
2019-05-14T13:45:54.240Z,34.36
2019-05-14T13:48:24.786Z,33.13
2019-05-14T13:50:55.230Z,32.99
2019-05-14T13:53:25.726Z,32.36
2019-05-14T13:55:57.799Z,33.58
2019-05-14T13:58:28.816Z,33.48
2019-05-14T14:00:59.662Z,33.33
2019-05-14T14:03:30.323Z,32.97
2019-05-14T14:06:00.785Z,32.94
2019-05-14T14:08:31.328Z,35.02
2019-05-14T14:11:04.176Z,35.41
2019-05-14T14:13:34.242Z,35.03
2019-05-14T14:16:04.830Z,33.55
2019-05-14T14:18:35.370Z,33.64
2019-05-14T14:21:05.923Z,34.64
2019-05-14T14:23:39.061Z,34.74
2019-05-14T14:26:09.398Z,35.36
2019-05-14T14:28:40.128Z,34.25
2019-05-14T14:31:11.219Z,34.44
2019-05-14T14:33:41.686Z,34.65
2019-05-14T14:36:12.111Z,33.96
2019-05-14T14:38:42.556Z,33.71
2019-05-14T14:41:13.016Z,34.89
2019-05-14T14:43:44.523Z,36.45
2019-05-14T14:46:15.303Z,36.64
2019-05-14T14:48:49.045Z,37.71
2019-05-14T14:51:19.317Z,37.43
2019-05-14T14:53:58.952Z,38.48
2019-05-14T14:56:22.341Z,38.64
2019-05-14T14:58:52.824Z,39.12
2019-05-14T15:01:23.332Z,38.70
2019-05-14T15:03:53.888Z,39.42
2019-05-14T15:06:24.331Z,39.93
2019-05-14T15:08:54.842Z,39.53
2019-05-14T15:11:29.099Z,39.47
2019-05-14T15:13:58.777Z,39.38
2019-05-14T15:16:29.837Z,38.34
2019-05-14T15:19:00.539Z,39.26
2019-05-14T15:21:31.069Z,38.22
2019-05-14T15:24:09.818Z,38.76
2019-05-14T15:26:33.969Z,39.19
2019-05-14T15:29:04.447Z,39.32
2019-05-14T15:31:34.965Z,40.15
2019-05-14T15:34:05.482Z,39.72
2019-05-14T15:36:41.029Z,40.15
2019-05-14T15:39:09.843Z,40.02
2019-05-14T15:41:40.386Z,40.20
2019-05-14T15:44:10.948Z,40.49
2019-05-14T15:46:42.198Z,40.69
2019-05-14T15:49:13.968Z,40.24
2019-05-14T15:51:44.526Z,40.70
2019-05-14T15:54:35.016Z,39.81
2019-05-14T15:56:49.303Z,41.10
2019-05-14T15:59:20.036Z,40.90
2019-05-14T16:01:50.706Z,41.12
2019-05-14T16:04:21.210Z,40.99
2019-05-14T16:06:51.996Z,41.12
2019-05-14T16:09:22.497Z,40.47
2019-05-14T16:11:53.207Z,40.61
2019-05-14T16:14:23.795Z,39.75
2019-05-14T16:16:54.261Z,40.74
2019-05-14T16:19:24.818Z,40.87
2019-05-14T16:21:55.326Z,41.16
2019-05-14T16:24:28.390Z,40.44
2019-05-14T16:27:00.092Z,40.94
2019-05-14T16:29:44.281Z,41.35
2019-05-14T16:32:02.582Z,41.31
2019-05-14T16:34:33.029Z,41.45
2019-05-14T16:37:03.519Z,42.54
2019-05-14T16:39:33.956Z,42.48
2019-05-14T16:42:04.668Z,42.23
2019-05-14T16:44:35.147Z,42.89
2019-05-14T16:47:05.632Z,42.06
2019-05-14T16:49:36.200Z,41.64
2019-05-14T16:52:09.171Z,41.81
2019-05-14T16:54:39.581Z,42.22
2019-05-14T16:57:11.010Z,42.01
2019-05-14T16:59:41.747Z,42.27
2019-05-14T17:02:12.216Z,42.12
2019-05-14T17:04:42.715Z,42.06
2019-05-14T17:07:13.228Z,42.78
2019-05-14T17:09:43.933Z,42.50
2019-05-14T17:12:14.515Z,42.73
2019-05-14T17:14:45.232Z,42.51
2019-05-14T17:17:15.688Z,42.89
2019-05-14T17:19:48.049Z,43.24
2019-05-14T17:22:28.683Z,43.36
2019-05-14T17:24:50.898Z,42.69
2019-05-14T17:27:21.387Z,42.80
2019-05-14T17:29:52.007Z,43.20
2019-05-14T17:32:22.476Z,42.85
2019-05-14T17:34:52.998Z,42.96
2019-05-14T17:37:23.562Z,42.94
2019-05-14T17:39:53.984Z,42.71
2019-05-14T17:42:24.485Z,42.78
2019-05-14T17:44:55.039Z,42.95
2019-05-14T17:47:25.543Z,43.37
2019-05-14T17:49:56.064Z,43.37
2019-05-14T17:52:29.859Z,43.16
2019-05-14T17:54:58.826Z,43.33
2019-05-14T17:57:35.153Z,43.57
2019-05-14T18:00:01.606Z,44.20
2019-05-14T18:02:32.031Z,44.27
2019-05-14T18:05:02.511Z,44.30
2019-05-14T18:07:33.099Z,44.21
2019-05-14T18:10:03.740Z,43.47
2019-05-14T18:12:34.222Z,43.76
2019-05-14T18:15:04.929Z,43.70
2019-05-14T18:17:35.458Z,43.84
2019-05-14T18:20:08.170Z,43.60
2019-05-14T18:22:42.217Z,43.50
2019-05-14T18:25:11.052Z,43.50
2019-05-14T18:27:41.783Z,43.76
2019-05-14T18:30:12.359Z,43.81
2019-05-14T18:32:42.831Z,44.21
2019-05-14T18:35:13.563Z,44.18
2019-05-14T18:37:44.230Z,44.35
2019-05-14T18:40:14.788Z,44.42
2019-05-14T18:42:45.234Z,44.92
2019-05-14T18:45:16.168Z,45.07
2019-05-14T18:47:48.472Z,45.07
2019-05-14T18:50:19.727Z,45.07
2019-05-14T18:52:50.894Z,45.62
2019-05-14T18:55:21.409Z,45.89
2019-05-14T18:57:52.108Z,45.75
2019-05-14T19:00:22.889Z,46.14
2019-05-14T19:02:53.400Z,46.04
2019-05-14T19:05:23.931Z,47.38
2019-05-14T19:07:54.398Z,48.20
2019-05-14T19:10:24.898Z,49.39
2019-05-14T19:12:55.378Z,50.58
2019-05-14T19:15:26.046Z,51.24
2019-05-14T19:18:00.496Z,51.47
2019-05-14T19:20:28.850Z,52.25
2019-05-14T19:23:00.186Z,52.30
2019-05-14T19:25:30.784Z,52.78
2019-05-14T19:28:01.307Z,53.03
2019-05-14T19:30:31.997Z,53.80
2019-05-14T19:33:02.506Z,55.45
2019-05-14T19:35:33.142Z,56.81
2019-05-14T19:38:03.685Z,57.92
2019-05-14T19:40:34.223Z,59.86
2019-05-14T19:43:04.683Z,60.88
2019-05-14T19:45:35.254Z,61.24
2019-05-14T19:48:08.039Z,61.60
2019-05-14T19:50:38.783Z,62.08
2019-05-14T19:53:09.610Z,62.72
2019-05-14T19:55:40.147Z,63.30
2019-05-14T19:58:10.715Z,63.70
2019-05-14T20:00:41.261Z,64.06
2019-05-14T20:03:11.759Z,64.15
2019-05-14T20:05:42.268Z,64.58
2019-05-14T20:08:12.846Z,65.09
2019-05-14T20:10:43.674Z,65.70
2019-05-14T20:13:14.366Z,65.63
2019-05-14T20:15:45.082Z,65.64
2019-05-14T20:18:15.671Z,65.69
2019-05-14T20:20:46.450Z,66.87
2019-05-14T20:23:18.489Z,66.83
2019-05-14T20:25:49.417Z,67.03
2019-05-14T20:28:19.843Z,67.08
2019-05-14T20:30:51.062Z,67.11
2019-05-14T20:33:21.734Z,67.36
2019-05-14T20:35:52.282Z,67.63
2019-05-14T20:38:22.820Z,68.03
2019-05-14T20:40:53.316Z,68.32
2019-05-14T20:43:23.817Z,68.28
2019-05-14T20:45:54.263Z,68.26
2019-05-14T20:48:25.046Z,68.33
2019-05-14T20:50:55.676Z,68.52
2019-05-14T20:53:29.114Z,68.73
2019-05-14T20:56:00.555Z,68.75
2019-05-14T20:58:31.382Z,68.88
2019-05-14T21:01:02.094Z,68.97
2019-05-14T21:03:32.714Z,69.11
2019-05-14T21:06:03.230Z,69.34
2019-05-14T21:08:37.953Z,69.16
2019-05-14T21:11:08.595Z,69.44
2019-05-14T21:13:39.125Z,69.50
2019-05-14T21:16:10.882Z,69.50
2019-05-14T21:18:41.538Z,69.62
2019-05-14T21:21:12.085Z,70.10
2019-05-14T21:23:42.733Z,69.80
2019-05-14T21:26:14.713Z,70.07
2019-05-14T21:28:45.231Z,70.20
2019-05-14T21:31:18.097Z,70.28
2019-05-14T21:33:48.939Z,69.98
2019-05-14T21:36:19.661Z,70.12
2019-05-14T21:38:50.166Z,70.31
2019-05-14T21:41:20.806Z,70.28
2019-05-14T21:43:51.362Z,70.69
2019-05-14T21:46:21.896Z,70.63
2019-05-14T21:48:52.350Z,70.71
2019-05-14T21:51:22.820Z,70.86
2019-05-14T21:53:53.344Z,71.07
2019-05-14T21:56:23.835Z,71.22
2019-05-14T21:58:54.304Z,71.34
2019-05-14T22:01:25.017Z,71.24
2019-05-14T22:03:55.589Z,71.28
2019-05-14T22:06:26.116Z,71.50
2019-05-14T22:08:59.097Z,71.77
2019-05-14T22:11:29.436Z,72.11
2019-05-14T22:14:00.137Z,72.22
2019-05-14T22:16:30.660Z,72.72
2019-05-14T22:19:01.166Z,72.68
2019-05-14T22:21:31.940Z,72.96
2019-05-14T22:24:02.561Z,73.00
2019-05-14T22:26:33.076Z,73.14
2019-05-14T22:29:03.684Z,72.95
2019-05-14T22:31:34.375Z,73.12
2019-05-14T22:34:08.738Z,73.35
2019-05-14T22:36:39.021Z,73.81
2019-05-14T22:39:09.779Z,73.79
2019-05-14T22:41:40.407Z,73.88
2019-05-14T22:44:10.928Z,74.02
2019-05-14T22:46:41.471Z,74.20
2019-05-14T22:49:12.104Z,74.45
2019-05-14T22:51:42.628Z,74.56
2019-05-14T22:54:13.153Z,74.28
2019-05-14T22:56:43.724Z,74.26
2019-05-14T22:59:14.281Z,74.39
2019-05-14T23:01:44.990Z,74.56
2019-05-14T23:04:15.466Z,74.53
2019-05-14T23:06:46.131Z,74.66
2019-05-14T23:09:19.005Z,74.62
2019-05-14T23:11:49.053Z,74.65
2019-05-14T23:14:19.710Z,74.81
2019-05-14T23:16:50.284Z,74.39
2019-05-14T23:19:20.743Z,74.52
2019-05-14T23:21:51.260Z,74.68
2019-05-14T23:24:21.820Z,74.43
2019-05-14T23:26:52.363Z,74.80
2019-05-14T23:29:22.870Z,74.84
2019-05-14T23:31:53.389Z,74.71
2019-05-14T23:34:23.863Z,74.84
2019-05-14T23:36:54.347Z,74.46
2019-05-14T23:39:25.956Z,74.35
2019-05-14T23:41:58.347Z,74.19
2019-05-14T23:44:29.384Z,74.52
2019-05-14T23:46:59.958Z,74.64
2019-05-14T23:49:30.524Z,74.62
2019-05-14T23:52:01.441Z,74.55
2019-05-14T23:54:32.069Z,74.90
2019-05-14T23:57:02.692Z,74.97
2019-05-14T23:59:33.180Z,75.31
